createdAt,value
2023-04-23T00:01:14.013Z,76.2
2023-04-23T00:03:14.248Z,76.1
2023-04-23T00:05:15.438Z,76.6
2023-04-23T00:07:15.684Z,76.3
2023-04-23T00:09:15.612Z,76.4
2023-04-23T00:11:13.996Z,76.4
2023-04-23T00:13:15.128Z,76.2
2023-04-23T00:15:14.029Z,76.6
2023-04-23T00:17:14.091Z,76.4
2023-04-23T00:19:13.980Z,76.3
2023-04-23T00:21:14.093Z,76.3
2023-04-23T00:23:14.063Z,76.3
2023-04-23T00:25:14.053Z,76.6
2023-04-23T00:27:15.085Z,76.5
2023-04-23T00:29:13.999Z,76.3
2023-04-23T00:31:14.077Z,76.3
2023-04-23T00:33:14.180Z,76.3
2023-04-23T00:35:14.058Z,76.7
2023-04-23T00:37:14.062Z,76.7
2023-04-23T00:39:13.943Z,76.6
2023-04-23T00:41:14.064Z,76.7
2023-04-23T00:43:14.056Z,76.5
2023-04-23T00:45:14.009Z,76.9
2023-04-23T00:47:14.044Z,76.7
2023-04-23T00:49:14.049Z,76.6
2023-04-23T00:51:14.086Z,76.4
2023-04-23T00:53:13.985Z,76.4
2023-04-23T00:55:13.950Z,76.9
2023-04-23T00:57:13.945Z,76.5
2023-04-23T00:59:14.021Z,76.6
2023-04-23T01:01:14.037Z,76.9
2023-04-23T01:03:14.170Z,77.8
2023-04-23T01:05:13.908Z,77.9
2023-04-23T01:07:14.085Z,77.6
2023-04-23T01:09:13.956Z,78.1
2023-04-23T01:11:14.054Z,78.7
2023-04-23T01:13:14.060Z,78.6
2023-04-23T01:15:13.921Z,78.5
2023-04-23T01:17:13.986Z,78
2023-04-23T01:19:13.951Z,78
2023-04-23T01:21:13.939Z,78.1
2023-04-23T01:23:13.954Z,78.5
2023-04-23T01:25:13.941Z,78.6
2023-04-23T01:27:13.985Z,79
2023-04-23T01:29:13.949Z,79
2023-04-23T01:31:13.968Z,79.2
2023-04-23T01:33:13.957Z,79.6
2023-04-23T01:35:13.959Z,79.8
2023-04-23T01:37:13.949Z,80.8
2023-04-23T01:39:13.941Z,80.9
2023-04-23T01:41:15.194Z,81.3
2023-04-23T01:43:13.997Z,81.2
2023-04-23T01:45:13.976Z,81.6
2023-04-23T01:47:14.028Z,81.6
2023-04-23T01:49:13.854Z,81.7
2023-04-23T01:51:13.982Z,81.8
2023-04-23T01:53:13.971Z,81.8
2023-04-23T01:55:13.913Z,81.7
2023-04-23T01:57:13.987Z,82
2023-04-23T01:59:13.945Z,81.8
2023-04-23T02:01:13.961Z,81.9
2023-04-23T02:03:14.108Z,82.1
2023-04-23T02:05:14.167Z,82.4
2023-04-23T02:07:13.886Z,83.1
2023-04-23T02:09:13.915Z,82.9
2023-04-23T02:11:13.984Z,83.4
2023-04-23T02:13:13.948Z,83.4
2023-04-23T02:15:13.941Z,83.1
2023-04-23T02:17:13.888Z,83.3
2023-04-23T02:19:15.907Z,82.9
2023-04-23T02:21:13.900Z,82.9
2023-04-23T02:23:13.918Z,83.2
2023-04-23T02:25:13.858Z,83.1
2023-04-23T02:27:13.962Z,83.2
2023-04-23T02:29:13.903Z,83.6
2023-04-23T02:31:13.944Z,83.4
2023-04-23T02:33:13.996Z,83.4
2023-04-23T02:35:14.095Z,83.5
2023-04-23T02:37:13.996Z,83.4
2023-04-23T02:39:14.004Z,83.4
2023-04-23T02:41:14.002Z,83.4
2023-04-23T02:43:13.949Z,83.2
2023-04-23T02:45:13.808Z,83.1
2023-04-23T02:47:13.887Z,83.1
2023-04-23T02:49:13.914Z,83
2023-04-23T02:51:13.910Z,83.1
2023-04-23T02:53:13.935Z,83.1
2023-04-23T02:55:13.897Z,83.1
2023-04-23T02:57:13.851Z,83.2
2023-04-23T02:59:13.826Z,83.3
2023-04-23T03:01:13.925Z,83.2
2023-04-23T03:03:14.039Z,83.2
2023-04-23T03:05:13.858Z,83.2
2023-04-23T03:07:13.807Z,83
2023-04-23T03:09:13.874Z,82.9
2023-04-23T03:11:13.833Z,83
2023-04-23T03:13:13.836Z,83
2023-04-23T03:15:13.788Z,83.1
2023-04-23T03:17:13.819Z,83.3
2023-04-23T03:19:13.889Z,83.1
2023-04-23T03:21:13.885Z,83
2023-04-23T03:23:13.900Z,83
2023-04-23T03:25:13.834Z,83.1
2023-04-23T03:27:13.859Z,83.4
2023-04-23T03:29:13.822Z,83.2
2023-04-23T03:31:13.876Z,83.2
2023-04-23T03:33:13.820Z,83.2
2023-04-23T03:35:13.763Z,83.1
2023-04-23T03:37:13.883Z,83.1
2023-04-23T03:39:13.810Z,82.9
2023-04-23T03:41:13.826Z,83
2023-04-23T03:43:13.810Z,83.8
2023-04-23T03:45:13.822Z,82.9
2023-04-23T03:47:13.836Z,82.9
2023-04-23T03:49:13.789Z,83.3
2023-04-23T03:51:13.738Z,83.1
2023-04-23T03:53:13.779Z,83.1
2023-04-23T03:55:13.797Z,83.1
2023-04-23T03:57:13.761Z,83.1
2023-04-23T03:59:13.730Z,83.3
2023-04-23T04:01:13.843Z,83
2023-04-23T04:03:13.927Z,82.9
2023-04-23T04:05:13.967Z,82.8
2023-04-23T04:07:13.843Z,82.8
2023-04-23T04:09:13.762Z,83
2023-04-23T04:11:13.770Z,83.1
2023-04-23T04:13:13.937Z,83
2023-04-23T04:15:13.737Z,83
2023-04-23T04:17:13.740Z,83.2
2023-04-23T04:19:13.750Z,83.3
2023-04-23T04:21:13.802Z,83.4
2023-04-23T04:23:13.784Z,83.4
2023-04-23T04:25:13.816Z,83.4
2023-04-23T04:27:13.688Z,83.8
2023-04-23T04:29:13.774Z,83.6
2023-04-23T04:31:13.854Z,83.7
2023-04-23T04:33:13.723Z,83.6
2023-04-23T04:35:13.753Z,83.6
2023-04-23T04:37:13.750Z,83.7
2023-04-23T04:39:13.711Z,83.7
2023-04-23T04:41:13.761Z,84
2023-04-23T04:43:13.744Z,83.9
2023-04-23T04:45:14.926Z,83.8
2023-04-23T04:47:13.757Z,83.6
2023-04-23T04:49:13.703Z,83.8
2023-04-23T04:51:13.737Z,83.4
2023-04-23T04:53:13.654Z,83.5
2023-04-23T04:55:13.720Z,83.8
2023-04-23T04:57:13.738Z,83.7
2023-04-23T04:59:13.657Z,83.6
2023-04-23T05:01:13.721Z,83.7
2023-04-23T05:03:14.553Z,83.7
2023-04-23T05:05:13.676Z,83.7
2023-04-23T05:07:13.736Z,83.7
2023-04-23T05:09:13.669Z,83.7
2023-04-23T05:11:13.724Z,83.6
2023-04-23T05:13:13.735Z,83.5
2023-04-23T05:15:13.692Z,83.7
2023-04-23T05:17:13.633Z,83.6
2023-04-23T05:19:13.711Z,83.6
2023-04-23T05:21:13.730Z,83.9
2023-04-23T05:23:13.727Z,83.9
2023-04-23T05:25:13.594Z,83.7
2023-04-23T05:27:13.716Z,83.8
2023-04-23T05:29:13.687Z,83.8
2023-04-23T05:31:13.754Z,83.8
2023-04-23T05:33:13.665Z,83.8
2023-04-23T05:35:13.619Z,83.7
2023-04-23T05:37:13.676Z,83.6
2023-04-23T05:39:13.672Z,83.7
2023-04-23T05:41:13.624Z,83.7
2023-04-23T05:43:13.702Z,83.8
2023-04-23T05:45:13.666Z,83.8
2023-04-23T05:47:13.672Z,83.7
2023-04-23T05:49:13.680Z,83.8
2023-04-23T05:51:13.621Z,83.8
2023-04-23T05:53:13.663Z,83.7
2023-04-23T05:55:13.679Z,83.5
2023-04-23T05:57:13.732Z,83.6
2023-04-23T05:59:13.612Z,83.8
2023-04-23T06:01:13.606Z,83.7
2023-04-23T06:03:13.759Z,83.7
2023-04-23T06:05:13.834Z,83.8
2023-04-23T06:07:13.609Z,83.8
2023-04-23T06:09:13.634Z,83.8
2023-04-23T06:11:13.618Z,83.8
2023-04-23T06:13:13.589Z,83.9
2023-04-23T06:15:13.661Z,84
2023-04-23T06:17:13.569Z,83.9
2023-04-23T06:19:13.574Z,84
2023-04-23T06:21:13.589Z,83.8
2023-04-23T06:23:13.633Z,83.9
2023-04-23T06:25:13.571Z,83.8
2023-04-23T06:27:13.692Z,83.7
2023-04-23T06:29:13.692Z,83.7
2023-04-23T06:31:13.621Z,83.8
2023-04-23T06:33:13.590Z,84
2023-04-23T06:35:13.561Z,83.7
2023-04-23T06:37:13.601Z,83.6
2023-04-23T06:39:13.575Z,83.6
2023-04-23T06:41:13.570Z,83.5
2023-04-23T06:43:13.570Z,83.5
2023-04-23T06:45:13.581Z,83.5
2023-04-23T06:47:13.555Z,83.5
2023-04-23T06:49:13.578Z,83.4
2023-04-23T06:51:13.488Z,83.5
2023-04-23T06:53:13.555Z,83.6
2023-04-23T06:55:13.556Z,83.4
2023-04-23T06:57:13.573Z,83.3
2023-04-23T06:59:13.499Z,83.6
2023-04-23T07:01:13.614Z,83.7
2023-04-23T07:03:13.686Z,83.6
2023-04-23T07:05:13.592Z,83.5
2023-04-23T07:07:13.580Z,83.6
2023-04-23T07:09:13.502Z,83.7
2023-04-23T07:11:13.536Z,83.7
2023-04-23T07:13:13.577Z,83.6
2023-04-23T07:15:13.559Z,83.3
2023-04-23T07:17:13.562Z,83.3
2023-04-23T07:19:13.628Z,83.4
2023-04-23T07:21:13.558Z,83.7
2023-04-23T07:23:13.548Z,83.5
2023-04-23T07:25:13.500Z,83.5
2023-04-23T07:27:13.651Z,83.5
2023-04-23T07:29:13.577Z,83.6
2023-04-23T07:31:13.604Z,83.7
2023-04-23T07:33:13.530Z,83.7
2023-04-23T07:35:13.620Z,83.7
2023-04-23T07:37:13.558Z,83.8
2023-04-23T07:39:13.570Z,83.8
2023-04-23T07:41:13.669Z,83.9
2023-04-23T07:43:13.575Z,83.8
2023-04-23T07:45:13.609Z,83.8
2023-04-23T07:47:13.520Z,83.8
2023-04-23T07:49:13.567Z,83.9
2023-04-23T07:51:13.577Z,83.8
2023-04-23T07:53:14.756Z,83.8
2023-04-23T07:55:13.547Z,83.7
2023-04-23T07:57:13.500Z,83.8
2023-04-23T07:59:13.623Z,83.8
2023-04-23T08:01:13.521Z,83.8
2023-04-23T08:03:13.790Z,83.8
2023-04-23T08:05:13.695Z,83.9
2023-04-23T08:07:13.573Z,84
2023-04-23T08:09:13.482Z,83.9
2023-04-23T08:11:13.842Z,84.1
2023-04-23T08:13:13.466Z,84
2023-04-23T08:15:13.523Z,83.9
2023-04-23T08:17:13.529Z,84
2023-04-23T08:19:13.543Z,84.2
2023-04-23T08:21:13.533Z,84.4
2023-04-23T08:23:13.445Z,84.2
2023-04-23T08:25:13.461Z,84
2023-04-23T08:27:13.448Z,84
2023-04-23T08:29:13.585Z,83.9
2023-04-23T08:31:25.432Z,83.9
2023-04-23T08:33:13.489Z,84.1
2023-04-23T08:35:13.515Z,84.2
2023-04-23T08:37:19.883Z,83.9
2023-04-23T08:39:13.487Z,83.6
2023-04-23T08:41:13.469Z,83.8
2023-04-23T08:43:13.489Z,84
2023-04-23T08:45:13.450Z,84.1
2023-04-23T08:47:13.424Z,84
2023-04-23T08:49:13.509Z,84.1
2023-04-23T08:51:13.544Z,84.2
2023-04-23T08:53:13.463Z,84.1
2023-04-23T08:55:13.416Z,84.1
2023-04-23T08:57:13.443Z,84
2023-04-23T08:59:13.425Z,84.2
2023-04-23T09:01:13.397Z,84.4
2023-04-23T09:03:13.507Z,84.4
2023-04-23T09:05:13.440Z,84.3
2023-04-23T09:07:13.395Z,84.2
2023-04-23T09:09:13.350Z,84.2
2023-04-23T09:11:13.450Z,84.1
2023-04-23T09:13:13.343Z,84.1
2023-04-23T09:15:13.489Z,84.1
2023-04-23T09:17:13.445Z,83.9
2023-04-23T09:19:13.398Z,84
2023-04-23T09:21:13.417Z,84.2
2023-04-23T09:23:13.400Z,84.2
2023-04-23T09:25:13.423Z,84.2
2023-04-23T09:27:13.297Z,84
2023-04-23T09:29:13.359Z,84.1
2023-04-23T09:31:13.464Z,84.1
2023-04-23T09:33:13.490Z,84.1
2023-04-23T09:35:13.423Z,84
2023-04-23T09:37:13.362Z,83.7
2023-04-23T09:39:13.845Z,83.8
2023-04-23T09:41:13.433Z,83.7
2023-04-23T09:43:13.489Z,83.6
2023-04-23T09:45:13.514Z,83.6
2023-04-23T09:47:13.415Z,83.4
2023-04-23T09:49:13.373Z,83.5
2023-04-23T09:51:13.486Z,83.4
2023-04-23T09:53:13.490Z,83.5
2023-04-23T09:55:13.424Z,83.4
2023-04-23T09:57:13.462Z,83.2
2023-04-23T09:59:13.401Z,83.2
2023-04-23T10:01:13.413Z,83.2
2023-04-23T10:03:13.411Z,83.3
2023-04-23T10:05:23.405Z,83.4
2023-04-23T10:09:13.315Z,83.3
2023-04-23T10:11:20.646Z,83.4
2023-04-23T10:13:13.328Z,83.4
2023-04-23T10:15:13.361Z,83.3
2023-04-23T10:17:13.489Z,83.2
2023-04-23T10:19:13.596Z,83.4
2023-04-23T10:21:13.310Z,83.2
2023-04-23T10:23:13.326Z,83.2
2023-04-23T10:25:13.305Z,83.4
2023-04-23T10:27:21.878Z,83.4
2023-04-23T10:29:13.479Z,83.5
2023-04-23T10:31:13.406Z,83.7
2023-04-23T10:33:22.716Z,83.5
2023-04-23T10:35:13.317Z,83.5
2023-04-23T10:37:13.298Z,83.5
2023-04-23T10:39:13.946Z,83.5
2023-04-23T10:41:13.315Z,83.3
2023-04-23T10:43:13.367Z,83.4
2023-04-23T10:45:22.971Z,83.3
2023-04-23T10:47:13.354Z,83.1
2023-04-23T10:49:13.314Z,83.2
2023-04-23T10:53:13.389Z,83.3
2023-04-23T10:55:13.338Z,83.2
2023-04-23T10:57:13.392Z,83.2
2023-04-23T10:59:13.298Z,83.3
2023-04-23T11:01:13.293Z,83.2
2023-04-23T11:03:13.405Z,83.2
2023-04-23T11:05:13.295Z,83
2023-04-23T11:07:13.334Z,82.9
2023-04-23T11:09:13.381Z,83.1
2023-04-23T11:11:13.325Z,83.2
2023-04-23T11:13:13.388Z,83.2
2023-04-23T11:15:13.221Z,82.7
2023-04-23T11:17:13.353Z,82.7
2023-04-23T11:19:13.269Z,82.5
2023-04-23T11:21:13.378Z,82.5
2023-04-23T11:23:13.265Z,82.4
2023-04-23T11:25:13.393Z,82.5
2023-04-23T11:27:13.292Z,82.3
2023-04-23T11:29:13.478Z,82.3
2023-04-23T11:31:13.250Z,82.5
2023-04-23T11:33:13.243Z,82.7
2023-04-23T11:35:13.882Z,82.6
2023-04-23T11:37:13.203Z,82.6
2023-04-23T11:39:13.233Z,82.6
2023-04-23T11:41:13.344Z,82.5
2023-04-23T11:43:13.198Z,82.6
2023-04-23T11:45:13.263Z,82.8
2023-04-23T11:47:13.215Z,82.5
2023-04-23T11:49:13.241Z,82.4
2023-04-23T11:51:13.348Z,82.4
2023-04-23T11:53:13.246Z,82.5
2023-04-23T11:55:13.182Z,82.4
2023-04-23T11:57:13.336Z,82
2023-04-23T11:59:13.210Z,82.1
2023-04-23T12:01:13.174Z,82.2
2023-04-23T12:03:13.252Z,82
2023-04-23T12:05:13.340Z,82.2
2023-04-23T12:07:23.314Z,82
2023-04-23T12:09:13.165Z,82
2023-04-23T12:11:13.303Z,82.1
2023-04-23T12:13:13.229Z,82.2
2023-04-23T12:15:13.215Z,81.9
2023-04-23T12:17:13.189Z,81.6
2023-04-23T12:19:13.150Z,81.8
2023-04-23T12:21:13.195Z,82
2023-04-23T12:23:13.373Z,82.1
2023-04-23T12:25:13.306Z,81.8
2023-04-23T12:27:13.275Z,81.6
2023-04-23T12:29:13.129Z,81.4
2023-04-23T12:31:13.197Z,81
2023-04-23T12:33:13.275Z,81
2023-04-23T12:35:13.161Z,81
2023-04-23T12:37:13.202Z,80.6
2023-04-23T12:39:13.197Z,80.7
2023-04-23T12:41:13.338Z,80.3
2023-04-23T12:43:14.531Z,80.1
2023-04-23T12:45:13.128Z,80.1
2023-04-23T12:47:13.161Z,78.8
2023-04-23T12:49:13.156Z,78.4
2023-04-23T12:51:13.168Z,78.2
2023-04-23T12:53:13.176Z,78
2023-04-23T12:55:13.219Z,76.9
2023-04-23T12:57:13.211Z,76.6
2023-04-23T12:59:13.164Z,76.6
2023-04-23T13:01:13.208Z,74.8
2023-04-23T13:03:13.139Z,74.8
2023-04-23T13:05:13.173Z,73.9
2023-04-23T13:07:13.129Z,74.2
2023-04-23T13:09:13.184Z,74.9
2023-04-23T13:11:13.128Z,74.6
2023-04-23T13:13:13.056Z,73.4
2023-04-23T13:15:13.105Z,72.8
2023-04-23T13:17:13.212Z,72.3
2023-04-23T13:19:13.193Z,71.6
2023-04-23T13:21:13.230Z,71.5
2023-04-23T13:23:13.112Z,70.6
2023-04-23T13:25:13.113Z,70.3
2023-04-23T13:27:13.119Z,69.5
2023-04-23T13:29:13.230Z,68.7
2023-04-23T13:31:13.125Z,67.4
2023-04-23T13:33:13.071Z,68.8
